Time;durP1;ratioP1;P1;durP2;ratioP2;P2;SDS_P1;SDS_P2;PMS_P1;PMS_P2;Temp;Humidity;BMP_temperature;BMP_pressure;BME280_temperature;BME280_humidity;BME280_pressure;Samples;Min_cycle;Max_cycle;Signal;HPM_P1;HPM_P2
2022/01/19 00:00:20;;;;;;;7.93;3.77;;;;;;;2.19;52.19;101277.91;5016569;28;20323;-72
2022/01/19 00:02:45;;;;;;;8.17;3.40;;;;;;;2.11;52.16;101264.34;5014146;28;20262;-73
2022/01/19 00:05:11;;;;;;;13.10;5.10;;;;;;;2.10;52.58;101270.47;5014302;28;20029;-73
2022/01/19 00:07:38;;;;;;;14.07;4.03;;;;;;;1.79;52.76;101250.13;5015111;28;20361;-73
2022/01/19 00:10:08;;;;;;;14.63;4.30;;;;;;;2.04;53.07;101275.13;5014097;28;20030;-73
2022/01/19 00:12:34;;;;;;;15.33;4.33;;;;;;;1.97;53.10;101285.00;5015447;28;20105;-71
2022/01/19 00:15:00;;;;;;;8.93;3.90;;;;;;;1.98;54.09;101306.75;5014901;28;20056;-73
2022/01/19 00:17:26;;;;;;;10.00;3.73;;;;;;;2.04;53.96;101307.31;5014069;28;20030;-73
2022/01/19 00:19:51;;;;;;;13.33;4.20;;;;;;;1.73;53.64;101268.66;5015593;28;20037;-73
2022/01/19 00:22:17;;;;;;;15.17;4.33;;;;;;;1.88;53.84;101309.78;5015031;28;20034;-71
2022/01/19 00:24:43;;;;;;;9.53;4.13;;;;;;;1.99;53.89;101305.81;5014610;28;20032;-71
2022/01/19 00:27:09;;;;;;;9.47;4.07;;;;;;;1.98;53.75;101294.53;5008225;28;20101;-73
2022/01/19 00:29:35;;;;;;;12.90;4.10;;;;;;;2.02;53.54;101316.13;5014680;28;20087;-73
2022/01/19 00:32:01;;;;;;;13.80;4.37;;;;;;;1.99;54.04;101305.81;5014687;28;20046;-71
2022/01/19 00:34:28;;;;;;;16.27;3.80;;;;;;;1.71;54.01;101288.78;5015297;28;20034;-73
2022/01/19 00:36:54;;;;;;;16.43;4.10;;;;;;;1.82;54.82;101309.19;5012369;28;20212;-73
2022/01/19 00:39:19;;;;;;;9.67;3.40;;;;;;;1.95;54.20;101315.56;4991415;28;20026;-73
2022/01/19 00:41:45;;;;;;;12.20;3.97;;;;;;;1.96;54.73;101295.50;4999837;28;20041;-71
2022/01/19 00:44:10;;;;;;;13.10;3.73;;;;;;;1.95;54.57;101302.50;5014114;28;20327;-71
2022/01/19 00:46:36;;;;;;;7.90;3.63;;;;;;;1.96;54.35;101304.19;5015712;28;20030;-73
2022/01/19 00:49:01;;;;;;;12.87;4.07;;;;;;;1.75;54.41;101302.53;5014534;28;20042;-73
2022/01/19 00:51:27;;;;;;;13.50;4.80;;;;;;;1.78;54.59;101313.72;5007802;28;20081;-71
2022/01/19 00:53:52;;;;;;;15.23;4.23;;;;;;;1.92;54.32;101334.84;5013220;28;20045;-71
2022/01/19 00:56:18;;;;;;;9.23;4.13;;;;;;;2.02;54.09;101326.59;5015222;28;20320;-73
2022/01/19 00:58:43;;;;;;;12.67;3.93;;;;;;;1.93;54.15;101314.78;5014592;28;20069;-73
2022/01/19 01:01:09;;;;;;;15.23;3.60;;;;;;;1.82;53.99;101298.75;5020877;28;20026;-73
2022/01/19 01:03:34;;;;;;;15.50;4.33;;;;;;;1.83;54.23;101329.19;5015666;28;20041;-73
2022/01/19 01:05:59;;;;;;;11.67;3.60;;;;;;;1.80;54.66;101322.31;5014668;28;20038;-73
2022/01/19 01:08:25;;;;;;;10.67;3.63;;;;;;;1.69;54.51;101295.84;5015194;28;20042;-71
2022/01/19 01:10:51;;;;;;;9.80;3.87;;;;;;;1.70;54.64;101307.97;5013544;28;20102;-71
2022/01/19 01:15:23;;;;;;;10.53;3.97;;;;;;;1.47;54.90;101300.28;5014950;28;20064;-72
2022/01/19 01:16:17;;;;;;;10.67;3.53;;;;;;;1.68;54.64;101330.69;5012603;28;20249;-72
2022/01/19 01:18:42;;;;;;;12.20;4.07;;;;;;;1.56;54.46;101321.63;5020789;28;20037;-71
2022/01/19 01:21:08;;;;;;;9.83;3.13;;;;;;;1.78;53.87;101346.81;5019742;28;20205;-71
2022/01/19 01:23:35;;;;;;;7.00;3.07;;;;;;;1.69;54.60;101344.59;5014330;28;20037;-73
2022/01/19 01:26:02;;;;;;;11.83;3.43;;;;;;;1.79;54.36;101349.34;5013691;28;20308;-73
2022/01/19 01:28:28;;;;;;;11.40;3.87;;;;;;;1.73;54.17;101344.41;4994639;28;20073;-73
2022/01/19 01:30:54;;;;;;;9.97;3.60;;;;;;;1.71;55.12;101342.78;5014841;28;20034;-73
2022/01/19 01:33:20;;;;;;;9.90;3.73;;;;;;;1.80;54.55;101337.16;5022390;28;20065;-73
2022/01/19 01:35:47;;;;;;;13.23;4.93;;;;;;;1.89;54.19;101350.66;5024023;28;20076;-72
2022/01/19 01:38:13;;;;;;;9.40;3.90;;;;;;;1.46;56.24;101328.16;5018613;28;20228;-71
2022/01/19 01:40:38;;;;;;;10.43;3.90;;;;;;;1.52;56.69;101314.84;5015822;28;20030;-72
2022/01/19 01:43:06;;;;;;;9.37;3.60;;;;;;;1.42;56.00;101316.16;5018343;28;20045;-73
2022/01/19 01:45:35;;;;;;;12.97;4.20;;;;;;;1.35;55.52;101319.09;5015327;28;20061;-72
2022/01/19 01:53:32;;;;;;;11.40;3.80;;;;;;;1.46;54.43;101309.88;5024044;28;20037;-73
2022/01/19 01:56:03;;;;;;;9.20;3.40;;;;;;;1.34;55.07;101333.06;5015268;28;20030;-73
2022/01/19 01:58:33;;;;;;;14.07;4.00;;;;;;;1.48;55.09;101320.25;4992748;28;20042;-73
2022/01/19 02:00:59;;;;;;;9.90;3.50;;;;;;;1.46;54.56;101319.47;5017801;28;20064;-71
2022/01/19 02:03:25;;;;;;;9.23;3.17;;;;;;;1.49;54.17;101320.19;4998319;28;20034;-71
2022/01/19 02:08:25;;;;;;;15.37;4.13;;;;;;;1.40;55.11;101286.66;5009397;28;20030;-72
2022/01/19 02:11:08;;;;;;;10.77;4.23;;;;;;;1.38;54.41;101270.22;5017341;28;20188;-71
2022/01/19 02:21:39;;;;;;;9.35;3.20;;;;;;;1.33;54.19;101271.34;5016228;28;20029;-73
2022/01/19 02:24:10;;;;;;;12.50;3.37;;;;;;;1.44;53.94;101282.16;5023629;28;20373;-71
2022/01/19 02:40:19;;;;;;;9.73;3.50;;;;;;;1.61;53.81;101274.44;5017125;28;20427;-73
2022/01/19 02:43:50;;;;;;;11.47;4.30;;;;;;;1.70;53.93;101281.00;5012918;28;20116;-71
2022/01/19 02:51:10;;;;;;;10.30;3.50;;;;;;;1.90;54.22;101278.34;5018059;28;20057;-73
2022/01/19 02:53:37;;;;;;;11.10;3.77;;;;;;;1.81;54.72;101289.22;5004342;28;20316;-73
2022/01/19 02:56:09;;;;;;;10.73;3.60;;;;;;;1.66;55.27;101285.53;5004473;28;20092;-72
2022/01/19 02:58:41;;;;;;;9.60;4.00;;;;;;;1.89;54.87;101279.28;5004613;28;20042;-71
2022/01/19 03:09:19;;;;;;;11.23;4.30;;;;;;;1.62;55.00;101280.50;5004257;28;20218;-71
2022/01/19 03:11:45;;;;;;;16.23;4.27;;;;;;;1.63;54.58;101288.28;5004018;28;20038;-73
2022/01/19 03:14:12;;;;;;;13.20;4.10;;;;;;;1.76;54.39;101291.19;5003154;28;20030;-73
2022/01/19 03:16:37;;;;;;;17.10;5.13;;;;;;;1.72;54.64;101284.41;5004162;28;20026;-73
2022/01/19 03:19:03;;;;;;;16.23;5.17;;;;;;;1.64;55.06;101307.41;5003932;28;20044;-73
2022/01/19 03:21:29;;;;;;;19.90;5.80;;;;;;;1.52;54.97;101290.50;5004057;28;20046;-71
2022/01/19 03:23:54;;;;;;;13.90;4.57;;;;;;;1.40;55.10;101288.44;5003960;28;20045;-71
2022/01/19 03:26:20;;;;;;;13.57;3.53;;;;;;;1.16;56.20;101296.38;5004005;28;20038;-73
2022/01/19 03:28:45;;;;;;;13.17;4.30;;;;;;;1.23;55.71;101310.88;5003628;28;20320;-73
2022/01/19 03:31:11;;;;;;;14.87;4.57;;;;;;;1.01;56.10;101306.56;5003865;28;20042;-71
2022/01/19 03:33:36;;;;;;;11.80;4.83;;;;;;;1.26;56.13;101322.94;5003532;28;20324;-71
2022/01/19 03:36:02;;;;;;;10.87;4.23;;;;;;;1.41;54.80;101322.28;4986375;28;20274;-73
2022/01/19 03:38:28;;;;;;;14.10;4.67;;;;;;;1.27;55.20;101340.28;5004187;28;20049;-73
2022/01/19 03:40:53;;;;;;;11.83;4.20;;;;;;;1.16;55.82;101319.88;5016125;28;20252;-71
2022/01/19 03:43:19;;;;;;;9.77;3.90;;;;;;;1.18;56.13;101327.63;5018859;28;20061;-71
2022/01/19 03:45:51;;;;;;;12.23;4.07;;;;;;;1.39;55.14;101331.09;5004172;28;20053;-73
2022/01/19 03:50:46;;;;;;;16.60;5.70;;;;;;;1.37;55.24;101323.34;5018341;28;20037;-71
2022/01/19 03:53:12;;;;;;;12.10;4.37;;;;;;;1.59;54.59;101344.16;5005206;28;20220;-71
2022/01/19 03:55:37;;;;;;;10.47;3.63;;;;;;;1.41;54.98;101331.88;5002817;28;20037;-73
2022/01/19 03:58:03;;;;;;;10.93;4.17;;;;;;;1.62;54.33;101333.56;5015477;28;20205;-73
2022/01/19 04:00:30;;;;;;;16.17;3.53;;;;;;;1.62;54.79;101336.19;5018948;28;20037;-73
2022/01/19 04:02:56;;;;;;;7.67;3.60;;;;;;;1.71;54.44;101337.53;5011491;28;20038;-73
2022/01/19 04:05:26;;;;;;;8.13;3.53;;;;;;;1.59;54.84;101331.94;5019965;28;20370;-71
2022/01/19 04:07:51;;;;;;;12.53;3.77;;;;;;;1.82;54.32;101340.53;5021254;28;20049;-71
2022/01/19 04:10:17;;;;;;;8.00;4.13;;;;;;;1.80;54.00;101335.38;5015313;28;20037;-73
2022/01/19 04:15:09;;;;;;;9.37;4.00;;;;;;;1.97;53.83;101339.00;5016525;28;20034;-71
2022/01/19 04:17:37;;;;;;;17.20;4.83;;;;;;;1.93;53.87;101339.16;5019884;28;20207;-71
2022/01/19 04:20:02;;;;;;;10.63;3.63;;;;;;;1.55;54.38;101335.59;5000738;28;20018;-73
2022/01/19 04:22:28;;;;;;;7.93;3.27;;;;;;;1.48;55.07;101346.38;5012698;28;20097;-73
2022/01/19 04:24:54;;;;;;;11.57;3.53;;;;;;;1.63;54.44;101343.09;5012564;28;20096;-73
2022/01/19 04:30:15;;;;;;;21.80;4.30;;;;;;;1.65;54.40;101328.22;5015091;28;20030;-72
2022/01/19 04:32:52;;;;;;;17.90;3.97;;;;;;;1.73;53.84;101339.19;5015250;28;20030;-73
2022/01/19 04:35:24;;;;;;;14.87;4.20;;;;;;;1.75;54.76;101346.94;5020920;28;20030;-72
2022/01/19 05:05:10;;;;;;;13.43;4.83;;;;;;;1.12;54.56;101351.38;5021207;28;20152;-73
2022/01/19 05:15:33;;;;;;;11.48;3.95;;;;;;;0.92;55.08;101359.97;5020992;28;20492;-73
2022/01/19 05:17:59;;;;;;;10.60;4.03;;;;;;;1.16;54.69;101386.84;5019124;28;20411;-73
2022/01/19 05:20:24;;;;;;;13.37;3.97;;;;;;;1.06;55.18;101382.91;5019937;28;20034;-73
2022/01/19 05:22:50;;;;;;;17.87;5.73;;;;;;;0.96;55.61;101383.25;5003565;28;20101;-73
2022/01/19 05:25:15;;;;;;;15.13;4.37;;;;;;;0.88;56.53;101400.97;5016531;28;20045;-71
2022/01/19 05:27:40;;;;;;;9.70;3.57;;;;;;;0.88;56.10;101371.44;5019507;28;20030;-72
2022/01/19 05:30:07;;;;;;;12.60;3.63;;;;;;;0.94;56.64;101385.06;5017129;28;20037;-73
2022/01/19 05:32:32;;;;;;;11.93;3.97;;;;;;;0.99;56.98;101389.25;5018479;28;20026;-73
2022/01/19 05:34:57;;;;;;;15.03;3.57;;;;;;;0.98;56.07;101382.34;5018085;28;20041;-71
2022/01/19 05:37:23;;;;;;;9.00;3.07;;;;;;;0.84;56.76;101394.16;4992994;28;20289;-71
2022/01/19 05:39:48;;;;;;;8.83;3.13;;;;;;;0.90;56.61;101391.31;4994696;28;20076;-73
2022/01/19 05:42:15;;;;;;;14.70;3.73;;;;;;;1.00;56.56;101399.63;5017807;28;20032;-73
2022/01/19 05:44:45;;;;;;;29.50;5.90;;;;;;;1.10;55.88;101410.56;4992037;28;20057;-71
2022/01/19 05:47:12;;;;;;;7.00;3.40;;;;;;;1.02;56.03;101423.03;5004279;28;20252;-71
2022/01/19 05:49:39;;;;;;;13.10;4.67;;;;;;;0.87;56.65;101408.84;5011568;28;20088;-72
2022/01/19 05:52:07;;;;;;;63.70;17.07;;;;;;;1.35;56.17;101450.44;5022983;28;20320;-73
2022/01/19 05:54:33;;;;;;;28.10;9.07;;;;;;;1.64;55.08;101448.38;5015270;28;20057;-73
2022/01/19 05:57:00;;;;;;;22.73;7.50;;;;;;;1.75;54.44;101447.03;5015502;28;20038;-73
2022/01/19 05:59:25;;;;;;;22.53;7.87;;;;;;;1.75;53.40;101447.03;5007726;28;20423;-73
2022/01/19 06:01:51;;;;;;;17.30;7.07;;;;;;;1.59;53.41;101441.59;5024558;28;20038;-71
2022/01/19 06:04:17;;;;;;;20.97;7.13;;;;;;;1.55;53.43;101445.25;5007451;28;20030;-72
2022/01/19 06:06:43;;;;;;;17.73;5.10;;;;;;;1.30;54.35;101443.69;5025050;28;20040;-73
2022/01/19 06:09:21;;;;;;;11.43;4.67;;;;;;;1.17;54.40;101441.59;5023477;28;20033;-73
2022/01/19 06:11:47;;;;;;;16.00;4.93;;;;;;;1.27;54.76;101444.69;5023870;28;20057;-71
2022/01/19 06:14:12;;;;;;;12.33;4.53;;;;;;;1.49;53.90;101455.94;5024992;28;20085;-72
2022/01/19 06:16:39;;;;;;;14.77;4.40;;;;;;;1.51;54.44;101472.41;5024301;28;20231;-73
2022/01/19 06:19:05;;;;;;;13.37;4.23;;;;;;;1.87;53.67;101474.41;5024833;28;20045;-73
2022/01/19 06:21:31;;;;;;;13.70;4.53;;;;;;;1.74;54.14;101470.59;5024517;28;20044;-72
2022/01/19 06:23:57;;;;;;;28.03;6.23;;;;;;;1.74;54.35;101473.22;5024209;28;20328;-71
2022/01/19 06:26:22;;;;;;;17.27;6.90;;;;;;;1.51;54.73;101433.25;5024878;28;20040;-73
2022/01/19 06:28:48;;;;;;;14.80;5.87;;;;;;;1.88;54.21;101474.34;5024513;28;20041;-73
2022/01/19 06:31:13;;;;;;;24.33;6.17;;;;;;;1.69;54.67;101473.41;5024585;28;20037;-73
2022/01/19 06:33:39;;;;;;;17.73;6.27;;;;;;;1.87;54.75;101475.25;5024414;28;20042;-71
2022/01/19 06:36:05;;;;;;;21.73;7.33;;;;;;;1.85;54.19;101482.28;5024595;28;20048;-73
2022/01/19 06:38:31;;;;;;;26.20;6.60;;;;;;;1.82;54.63;101477.19;5024798;28;20251;-73
2022/01/19 06:40:57;;;;;;;20.40;6.80;;;;;;;2.00;54.14;101478.19;5024195;28;20041;-72
2022/01/19 06:43:22;;;;;;;19.90;6.63;;;;;;;2.03;54.29;101477.22;5006917;28;20319;-71
2022/01/19 06:45:47;;;;;;;14.30;6.93;;;;;;;1.97;54.23;101485.31;5024466;28;20034;-72
2022/01/19 06:48:13;;;;;;;15.00;6.20;;;;;;;1.93;54.54;101488.06;5023933;28;20042;-73
2022/01/19 06:50:38;;;;;;;17.63;7.27;;;;;;;2.19;54.15;101492.19;5024573;28;20383;-73
2022/01/19 06:53:04;;;;;;;19.10;6.87;;;;;;;2.09;54.86;101485.66;5006531;28;20270;-73
2022/01/19 06:55:29;;;;;;;18.90;7.00;;;;;;;2.05;53.83;101497.13;5023853;28;20427;-71
2022/01/19 06:57:55;;;;;;;17.73;6.17;;;;;;;2.19;53.38;101497.41;5024456;28;20373;-72
2022/01/19 07:00:21;;;;;;;17.20;5.10;;;;;;;2.39;52.68;101493.09;5024104;28;20038;-73
2022/01/19 07:02:46;;;;;;;24.70;6.47;;;;;;;2.47;51.86;101476.16;5023563;28;20218;-73
2022/01/19 07:05:11;;;;;;;20.97;7.37;;;;;;;2.70;51.46;101476.88;5006457;28;20059;-73
2022/01/19 07:07:37;;;;;;;17.10;6.43;;;;;;;2.71;51.02;101476.81;5006598;28;20026;-73
2022/01/19 07:10:04;;;;;;;23.60;8.00;;;;;;;2.61;51.67;101482.53;5023596;28;20038;-73
2022/01/19 07:12:31;;;;;;;19.57;5.37;;;;;;;2.71;51.25;101482.03;5023977;28;20234;-73
2022/01/19 07:14:56;;;;;;;17.13;4.63;;;;;;;2.65;51.35;101478.84;5023885;28;20029;-72
2022/01/19 07:17:22;;;;;;;16.87;6.10;;;;;;;2.73;51.43;101464.50;5023399;28;20220;-72
2022/01/19 07:19:47;;;;;;;18.23;6.10;;;;;;;2.95;50.78;101469.59;5023743;28;20041;-73
2022/01/19 07:22:15;;;;;;;15.67;5.23;;;;;;;3.01;51.00;101471.94;5023705;28;20064;-73
2022/01/19 07:24:41;;;;;;;18.90;5.67;;;;;;;3.08;51.21;101473.34;5023192;28;20033;-73
2022/01/19 07:27:06;;;;;;;17.80;4.70;;;;;;;3.08;50.49;101473.34;5006013;28;20033;-73
2022/01/19 07:29:32;;;;;;;13.47;4.63;;;;;;;3.22;50.57;101484.97;5023025;28;20042;-72
2022/01/19 07:31:58;;;;;;;14.87;4.80;;;;;;;3.46;49.40;101470.69;5005377;28;20053;-73
2022/01/19 07:34:25;;;;;;;21.50;4.30;;;;;;;3.45;48.86;101477.69;5023276;28;20040;-73
2022/01/19 07:36:51;;;;;;;13.20;4.60;;;;;;;3.63;48.56;101475.09;5023287;28;20033;-73
2022/01/19 07:39:16;;;;;;;11.47;4.53;;;;;;;3.70;48.26;101486.97;5023062;28;20030;-73
2022/01/19 07:41:42;;;;;;;17.93;5.13;;;;;;;3.79;48.34;101490.00;5023286;28;20030;-73
2022/01/19 07:44:07;;;;;;;13.97;4.73;;;;;;;3.87;47.98;101499.25;5023292;28;20045;-73
2022/01/19 07:46:32;;;;;;;17.00;5.33;;;;;;;3.73;48.68;101482.44;5022881;28;20286;-71
2022/01/19 07:48:58;;;;;;;18.30;5.60;;;;;;;4.20;48.01;101481.84;5022970;28;20056;-72
2022/01/19 07:51:23;;;;;;;12.00;5.03;;;;;;;4.20;47.67;101467.88;5023207;28;20092;-73
2022/01/19 07:53:49;;;;;;;16.53;5.80;;;;;;;4.33;47.71;101489.91;5023464;28;20320;-73
2022/01/19 07:56:15;;;;;;;27.40;5.50;;;;;;;4.42;47.30;101484.19;5023160;28;20245;-73
2022/01/19 07:58:40;;;;;;;14.90;5.00;;;;;;;4.42;47.32;101471.06;5022960;28;20104;-73
2022/01/19 08:01:05;;;;;;;14.07;5.80;;;;;;;4.43;47.51;101475.41;5005385;28;20026;-71
2022/01/19 08:03:31;;;;;;;16.77;5.20;;;;;;;4.21;48.25;101486.16;5004864;28;20022;-72
2022/01/19 08:05:56;;;;;;;13.83;5.43;;;;;;;4.28;47.93;101468.31;5005497;28;20026;-73
2022/01/19 08:08:22;;;;;;;19.07;6.20;;;;;;;4.43;48.46;101475.41;5005362;28;20047;-73
2022/01/19 08:10:48;;;;;;;13.70;4.90;;;;;;;4.63;47.50;101469.94;5022920;28;20401;-73
2022/01/19 08:13:15;;;;;;;15.67;6.33;;;;;;;4.64;47.93;101463.75;5005437;28;20345;-73
2022/01/19 08:15:41;;;;;;;19.83;6.00;;;;;;;4.63;47.38;101472.56;5022838;28;20034;-73
2022/01/19 08:18:06;;;;;;;13.57;4.83;;;;;;;4.83;46.74;101463.63;5005182;28;20036;-71
2022/01/19 08:20:32;;;;;;;19.60;6.60;;;;;;;4.79;46.99;101462.94;5022680;28;20030;-72
2022/01/19 08:22:57;;;;;;;28.00;9.47;;;;;;;4.97;46.51;101473.34;5022237;28;20075;-73
2022/01/19 08:25:23;;;;;;;14.33;6.00;;;;;;;5.00;46.58;101468.78;5021739;28;20045;-73
2022/01/19 08:27:48;;;;;;;17.13;6.83;;;;;;;5.18;46.28;101458.19;5021884;28;20100;-73
2022/01/19 08:30:14;;;;;;;15.10;5.03;;;;;;;5.39;45.76;101463.13;5004155;28;20026;-73
2022/01/19 08:32:40;;;;;;;14.30;4.43;;;;;;;5.30;45.69;101462.78;5021460;28;20029;-73
2022/01/19 08:35:07;;;;;;;14.30;4.47;;;;;;;5.20;45.01;101446.72;5021661;28;20068;-73
2022/01/19 08:37:33;;;;;;;13.83;4.40;;;;;;;5.08;45.31;101445.59;5021364;28;20036;-72
2022/01/19 08:40:00;;;;;;;13.63;4.67;;;;;;;5.09;45.15;101455.16;5021118;28;20105;-72
2022/01/19 08:42:26;;;;;;;17.03;3.90;;;;;;;5.42;45.44;101462.09;5003443;28;20026;-73
2022/01/19 08:44:53;;;;;;;14.55;4.43;;;;;;;5.72;44.68;101462.97;5021447;28;20041;-73
2022/01/19 08:47:19;;;;;;;10.23;4.38;;;;;;;5.66;43.66;101457.22;5021424;28;20382;-73
2022/01/19 08:49:45;;;;;;;18.30;4.10;;;;;;;5.85;43.31;101468.34;5015896;28;20053;-73
2022/01/19 08:52:10;;;;;;;8.02;4.03;;;;;;;5.77;42.46;101452.19;4998300;28;20038;-73
2022/01/19 08:54:36;;;;;;;14.85;4.95;;;;;;;5.90;43.41;101463.69;5014475;28;20037;-73
2022/01/19 08:57:03;;;;;;;12.80;4.77;;;;;;;6.10;42.35;101459.88;5013625;28;20021;-73
2022/01/19 08:59:29;;;;;;;12.02;5.00;;;;;;;6.08;42.24;101445.97;5015956;28;20262;-72
2022/01/19 09:01:55;;;;;;;11.68;4.35;;;;;;;5.82;42.67;101444.88;5014155;28;20029;-72
2022/01/19 09:04:20;;;;;;;12.67;4.90;;;;;;;5.99;41.92;101452.63;5014256;28;20072;-72
2022/01/19 09:06:46;;;;;;;9.32;4.05;;;;;;;5.83;42.69;101438.69;5014677;28;20038;-73
2022/01/19 09:09:11;;;;;;;16.63;5.82;;;;;;;6.28;42.01;101443.03;5014213;28;20042;-73
2022/01/19 09:11:37;;;;;;;11.55;4.95;;;;;;;6.10;41.59;101441.47;5015708;28;20021;-73
2022/01/19 09:14:03;;;;;;;9.68;3.75;;;;;;;5.90;40.83;101420.78;5014034;28;20173;-73
2022/01/19 09:16:29;;;;;;;7.65;3.28;;;;;;;5.64;41.60;101435.44;5015655;28;20342;-73
2022/01/19 09:18:55;;;;;;;13.52;4.00;;;;;;;5.81;41.47;101435.28;5015133;28;20034;-73
2022/01/19 09:21:21;;;;;;;10.88;4.05;;;;;;;5.49;41.09;101426.66;5015245;28;20034;-72
2022/01/19 09:23:46;;;;;;;10.03;4.10;;;;;;;5.57;41.13;101441.97;5014064;28;20037;-73
2022/01/19 09:26:12;;;;;;;15.57;4.70;;;;;;;5.62;41.26;101409.25;5014706;28;20045;-73
2022/01/19 09:28:37;;;;;;;10.30;4.00;;;;;;;5.84;40.70;101429.84;5014755;28;20074;-73
2022/01/19 09:31:10;;;;;;;10.35;4.38;;;;;;;5.85;40.49;101410.50;5014138;28;20038;-71
2022/01/19 09:33:36;;;;;;;9.40;4.10;;;;;;;5.77;39.54;101410.13;5014316;28;20725;-73
2022/01/19 09:38:29;;;;;;;10.95;3.55;;;;;;;5.97;40.88;101393.19;5015382;28;20022;-73
2022/01/19 09:40:56;;;;;;;12.98;5.25;;;;;;;5.99;40.51;101399.19;4998619;28;20026;-73
2022/01/19 09:43:22;;;;;;;7.73;3.93;;;;;;;6.18;40.85;101394.53;5019421;28;20072;-72
2022/01/19 09:46:00;;;;;;;12.73;3.78;;;;;;;5.91;39.90;101383.88;5020955;28;20038;-73
2022/01/19 09:48:26;;;;;;;9.70;3.07;;;;;;;5.67;40.01;101386.16;5020969;28;20037;-72
2022/01/19 09:50:54;;;;;;;9.27;3.37;;;;;;;5.92;40.73;101380.31;5020509;28;20060;-73
2022/01/19 09:53:19;;;;;;;12.15;3.25;;;;;;;5.78;40.40;101356.63;5006016;28;20037;-72
2022/01/19 09:55:46;;;;;;;11.95;3.70;;;;;;;5.65;40.02;101374.06;5024469;28;20030;-73
2022/01/19 09:58:12;;;;;;;11.23;3.37;;;;;;;5.68;39.81;101353.69;5024150;28;20029;-73
2022/01/19 10:00:38;;;;;;;10.77;3.47;;;;;;;5.79;40.25;101358.31;5024197;28;20037;-73
2022/01/19 10:03:13;;;;;;;11.68;3.55;;;;;;;5.84;39.66;101371.19;5006543;28;20200;-73
2022/01/19 10:05:55;;;;;;;11.57;3.83;;;;;;;5.97;39.95;101372.16;5023991;28;20053;-73
2022/01/19 10:08:29;;;;;;;10.23;4.10;;;;;;;6.00;40.07;101374.59;5006414;28;20091;-72
2022/01/19 10:11:21;;;;;;;12.60;4.07;;;;;;;5.90;39.00;101381.34;5024154;28;20617;-73
2022/01/19 10:17:01;;;;;;;9.63;3.25;;;;;;;5.77;39.20;101368.06;5024131;28;20053;-72
2022/01/19 10:19:50;;;;;;;10.43;3.43;;;;;;;6.07;39.79;101373.28;5006374;28;20088;-73
2022/01/19 10:22:26;;;;;;;12.03;4.33;;;;;;;6.11;39.04;101372.16;5023987;28;21952;-73
2022/01/19 10:25:04;;;;;;;10.07;3.70;;;;;;;6.00;39.30;101356.19;5023860;28;20148;-73
2022/01/19 10:27:35;;;;;;;14.65;3.78;;;;;;;6.11;39.11;101356.38;5022979;28;20038;-73
2022/01/19 10:30:04;;;;;;;10.68;4.30;;;;;;;5.88;39.58;101355.13;5006209;28;20251;-73
2022/01/19 10:32:41;;;;;;;6.47;3.33;;;;;;;5.92;39.39;101359.28;5023615;28;20026;-73
2022/01/19 10:35:23;;;;;;;7.28;3.45;;;;;;;5.88;39.17;101346.38;5023640;28;20049;-73
2022/01/19 10:38:04;;;;;;;12.37;3.13;;;;;;;5.86;39.42;101329.88;5023819;28;20133;-72
2022/01/19 10:40:30;;;;;;;11.03;3.47;;;;;;;5.89;39.70;101329.69;5006134;28;20049;-72
2022/01/19 10:42:55;;;;;;;7.03;2.90;;;;;;;6.02;38.81;101322.75;5023306;28;20041;-73
2022/01/19 10:45:21;;;;;;;10.00;3.03;;;;;;;5.94;39.58;101293.47;5023767;28;20040;-73
2022/01/19 10:47:56;;;;;;;11.53;3.50;;;;;;;5.61;38.96;101262.19;5005983;28;20028;-73
2022/01/19 10:50:21;;;;;;;10.83;3.37;;;;;;;5.78;38.93;101320.66;5023175;28;20045;-73
2022/01/19 10:52:47;;;;;;;8.87;3.30;;;;;;;5.73;40.01;101300.84;5023135;28;20037;-73
2022/01/19 10:55:20;;;;;;;10.60;3.50;;;;;;;5.85;38.76;101275.59;5001641;28;20037;-73
2022/01/19 10:57:47;;;;;;;10.47;3.37;;;;;;;6.03;38.88;101283.22;5018280;28;20386;-73
2022/01/19 11:00:23;;;;;;;10.87;3.20;;;;;;;6.12;38.46;101294.97;5017513;28;20105;-72
2022/01/19 11:02:50;;;;;;;12.53;3.30;;;;;;;5.86;39.25;101269.41;5018328;28;20251;-72
2022/01/19 11:05:17;;;;;;;11.05;4.70;;;;;;;6.04;39.42;101281.44;5016844;28;20050;-72
2022/01/19 11:07:43;;;;;;;9.05;3.70;;;;;;;6.07;40.08;101282.09;4999870;28;20029;-73
2022/01/19 11:10:17;;;;;;;12.50;3.38;;;;;;;6.04;39.50;101271.75;5018288;28;20109;-73
2022/01/19 11:12:46;;;;;;;8.63;2.85;;;;;;;6.13;39.10;101269.50;5016751;28;20280;-73
2022/01/19 11:15:14;;;;;;;8.73;3.37;;;;;;;5.99;38.99;101268.59;5017667;28;20049;-73
2022/01/19 11:17:39;;;;;;;9.18;3.10;;;;;;;5.97;38.91;101266.97;5018463;28;20031;-72
2022/01/19 11:20:08;;;;;;;7.25;3.90;;;;;;;6.05;39.34;101254.22;5017780;28;20065;-72
2022/01/19 11:22:45;;;;;;;13.55;3.30;;;;;;;5.93;39.97;101244.47;5018495;28;20089;-73
2022/01/19 11:25:25;;;;;;;18.17;3.85;;;;;;;6.18;39.23;101247.22;5001290;28;20113;-72
2022/01/19 11:27:51;;;;;;;7.53;3.20;;;;;;;6.09;39.06;101251.28;4999143;28;20263;-73
2022/01/19 11:30:27;;;;;;;8.38;3.45;;;;;;;5.83;39.90;101252.03;5016759;28;20219;-73
2022/01/19 11:33:17;;;;;;;8.88;3.85;;;;;;;6.16;39.97;101248.25;4998437;28;20036;-73
2022/01/19 11:35:47;;;;;;;11.00;3.47;;;;;;;6.16;39.85;101245.63;5016937;28;20034;-72
2022/01/19 11:38:38;;;;;;;12.20;4.35;;;;;;;6.47;40.42;101237.50;5017270;28;20276;-73
2022/01/19 11:41:32;;;;;;;8.82;3.78;;;;;;;6.57;39.43;101235.97;4999205;28;20026;-73
2022/01/19 11:43:58;;;;;;;13.05;4.10;;;;;;;6.66;39.26;101230.09;5016287;28;20045;-73
2022/01/19 11:46:29;;;;;;;12.20;4.18;;;;;;;6.78;38.68;101231.06;5016951;28;20033;-73
2022/01/19 11:48:54;;;;;;;13.38;4.05;;;;;;;6.89;38.35;101217.19;5017535;28;20037;-73
2022/01/19 11:51:34;;;;;;;14.98;4.38;;;;;;;6.85;38.63;101213.91;5016920;28;20029;-72
2022/01/19 11:54:13;;;;;;;15.53;4.63;;;;;;;6.96;38.74;101211.41;5015938;28;20296;-73
2022/01/19 11:57:04;;;;;;;12.63;4.45;;;;;;;7.11;37.86;101212.16;5015380;28;20041;-73
2022/01/19 11:59:47;;;;;;;10.23;4.50;;;;;;;7.01;37.53;101209.31;5017027;28;20026;-72
2022/01/19 12:02:26;;;;;;;9.02;3.95;;;;;;;6.69;38.79;101208.00;4998182;28;20018;-73
2022/01/19 12:04:58;;;;;;;11.00;4.00;;;;;;;6.70;38.62;101204.41;5018893;28;20146;-73
2022/01/19 12:07:41;;;;;;;15.85;4.47;;;;;;;6.64;38.48;101189.03;5022155;28;20028;-73
2022/01/19 12:10:13;;;;;;;10.77;4.35;;;;;;;6.65;38.05;101188.09;5021899;28;20025;-73
2022/01/19 12:12:57;;;;;;;11.57;3.83;;;;;;;6.85;37.60;101181.47;5020065;28;20033;-73
2022/01/19 12:15:49;;;;;;;12.55;3.53;;;;;;;6.69;37.17;101189.56;5021851;28;20032;-73
2022/01/19 12:18:57;;;;;;;13.13;4.15;;;;;;;6.73;37.06;101193.69;5021050;28;20051;-73
2022/01/19 12:21:32;;;;;;;11.52;3.35;;;;;;;6.75;37.40;101185.69;4923232;29;20060;-73
2022/01/19 12:24:16;;;;;;;8.80;3.60;;;;;;;6.84;37.38;101178.00;4923021;29;20079;-72
2022/01/19 12:27:00;;;;;;;9.32;3.80;;;;;;;6.87;37.37;101163.78;4989441;28;20108;-73
2022/01/19 12:29:36;;;;;;;12.30;3.80;;;;;;;6.91;37.91;101163.47;5003594;28;20313;-73
2022/01/19 12:32:15;;;;;;;16.67;3.45;;;;;;;6.86;37.21;101152.41;5021616;28;20025;-73
2022/01/19 12:34:48;;;;;;;10.50;3.50;;;;;;;6.84;36.71;101145.56;5021244;28;20337;-73
2022/01/19 12:37:36;;;;;;;14.07;5.05;;;;;;;6.62;37.80;101143.53;5004042;28;20022;-73
2022/01/19 12:40:32;;;;;;;15.23;4.00;;;;;;;6.78;37.64;101138.94;5006322;28;20046;-73
2022/01/19 12:43:01;;;;;;;10.57;3.88;;;;;;;6.84;36.27;101133.25;5002068;28;20430;-73
2022/01/19 12:45:28;;;;;;;9.73;4.30;;;;;;;6.57;36.03;101135.09;5021633;28;20034;-72
2022/01/19 12:48:07;;;;;;;16.50;4.60;;;;;;;6.86;36.75;101135.78;5003613;28;20060;-72
2022/01/19 12:50:32;;;;;;;12.20;4.40;;;;;;;6.72;36.66;101121.75;5020372;28;20103;-73
2022/01/19 12:53:00;;;;;;;15.43;3.95;;;;;;;6.65;37.36;101127.53;5001906;28;20026;-73
2022/01/19 12:55:29;;;;;;;15.30;4.57;;;;;;;6.63;36.53;101118.91;5021407;28;20345;-73
2022/01/19 12:57:56;;;;;;;8.80;3.75;;;;;;;6.60;36.95;101116.47;5021578;28;20026;-73
2022/01/19 13:00:24;;;;;;;11.07;3.20;;;;;;;6.75;36.65;101118.06;5021286;28;20361;-72
2022/01/19 13:02:50;;;;;;;11.93;4.10;;;;;;;6.81;36.78;101117.66;5021274;28;20212;-72
2022/01/19 13:05:20;;;;;;;12.20;4.60;;;;;;;6.85;36.62;101119.13;5003916;28;20021;-73